createdAt,value
2023-05-25T00:03:40.440Z,12.65
2023-05-25T00:08:43.439Z,12.50
2023-05-25T00:13:46.255Z,12.44
2023-05-25T00:18:50.450Z,12.32
2023-05-25T00:23:53.316Z,12.30
2023-05-25T00:28:56.225Z,12.34
2023-05-25T00:34:01.044Z,12.32
2023-05-25T00:39:03.847Z,12.37
2023-05-25T00:44:07.638Z,12.25
2023-05-25T00:49:14.589Z,12.12
2023-05-25T00:54:18.523Z,12.43
2023-05-25T00:59:27.970Z,12.41
2023-05-25T01:04:32.626Z,12.26
2023-05-25T01:09:39.547Z,12.31
2023-05-25T01:14:43.338Z,12.05
2023-05-25T01:19:58.070Z,11.89
2023-05-25T01:25:16.298Z,11.82
2023-05-25T01:30:21.137Z,11.82
2023-05-25T01:35:26.365Z,11.71
2023-05-25T01:40:30.606Z,11.93
2023-05-25T01:45:34.401Z,11.94
2023-05-25T01:50:44.418Z,12.07
2023-05-25T01:55:54.928Z,11.70
2023-05-25T02:00:59.506Z,11.74
2023-05-25T02:06:02.693Z,11.91
2023-05-25T02:11:06.980Z,11.82
2023-05-25T02:16:09.849Z,11.94
2023-05-25T02:21:12.940Z,12.03
2023-05-25T02:26:17.149Z,11.98
2023-05-25T02:31:21.383Z,11.86
2023-05-25T02:36:25.029Z,11.56
2023-05-25T02:41:29.297Z,11.42
2023-05-25T02:46:33.563Z,11.86
2023-05-25T02:51:37.038Z,11.58
2023-05-25T02:56:42.429Z,11.66
2023-05-25T03:01:46.980Z,11.57
2023-05-25T03:06:49.789Z,11.72
2023-05-25T03:11:56.286Z,11.94
2023-05-25T03:17:00.819Z,12.16
2023-05-25T03:22:04.788Z,12.51
2023-05-25T03:27:15.114Z,12.37
2023-05-25T03:32:18.331Z,12.59
2023-05-25T03:37:21.298Z,12.47
2023-05-25T03:42:25.616Z,12.36
2023-05-25T03:47:28.729Z,12.50
2023-05-25T03:52:31.697Z,12.41
2023-05-25T03:57:36.089Z,12.61
2023-05-25T04:02:38.954Z,12.67
2023-05-25T04:07:41.803Z,12.77
2023-05-25T04:12:46.074Z,12.65
2023-05-25T04:17:48.931Z,12.56
2023-05-25T04:22:52.071Z,12.66
2023-05-25T04:27:56.940Z,12.76
2023-05-25T04:33:22.439Z,13.09
2023-05-25T04:38:35.595Z,12.84
2023-05-25T04:43:49.304Z,12.74
2023-05-25T04:48:59.809Z,12.93
2023-05-25T04:54:02.707Z,13.30
2023-05-25T04:59:07.184Z,13.70
2023-05-25T05:04:10.462Z,13.66
2023-05-25T05:09:14.283Z,13.52
2023-05-25T05:14:18.487Z,13.77
2023-05-25T05:19:22.961Z,13.96
2023-05-25T05:24:26.051Z,14.29
2023-05-25T05:29:30.262Z,14.13
2023-05-25T05:34:33.659Z,14.29
2023-05-25T05:39:41.831Z,14.08
2023-05-25T05:44:46.045Z,14.19
2023-05-25T05:49:48.850Z,14.32
2023-05-25T05:54:52.485Z,14.55
2023-05-25T06:00:00.010Z,14.82
2023-05-25T06:05:02.913Z,15.09
2023-05-25T06:10:06.884Z,16.19
2023-05-25T06:15:12.504Z,16.58
2023-05-25T06:20:16.666Z,16.33
2023-05-25T06:25:23.797Z,16.28
2023-05-25T06:30:28.038Z,16.33
2023-05-25T06:35:31.027Z,16.77
2023-05-25T06:40:34.199Z,17.45
2023-05-25T06:45:39.797Z,18.65
2023-05-25T06:50:42.953Z,19.10
2023-05-25T06:55:45.954Z,18.42
2023-05-25T07:00:50.598Z,18.70
2023-05-25T07:05:53.457Z,18.56
2023-05-25T07:10:56.231Z,19.18
2023-05-25T07:16:00.484Z,20.93
2023-05-25T07:21:03.602Z,22.37
2023-05-25T07:26:06.591Z,22.69
2023-05-25T07:31:13.043Z,25.58
2023-05-25T07:36:15.982Z,28.72
2023-05-25T07:41:18.837Z,31.06
2023-05-25T07:46:25.247Z,26.69
2023-05-25T07:51:31.135Z,25.82
2023-05-25T07:56:33.999Z,27.16
2023-05-25T08:01:39.112Z,26.94
2023-05-25T08:06:42.198Z,30.62
2023-05-25T08:11:45.761Z,27.79
2023-05-25T08:16:49.999Z,26.45
2023-05-25T08:21:53.572Z,26.96
2023-05-25T08:26:56.605Z,25.34
2023-05-25T08:32:00.916Z,23.80
2023-05-25T08:37:03.762Z,22.28
2023-05-25T08:42:08.105Z,19.62
2023-05-25T08:47:15.307Z,19.30
2023-05-25T08:52:23.444Z,20.48
2023-05-25T08:57:30.676Z,19.69
2023-05-25T09:02:40.262Z,20.28
2023-05-25T09:07:44.372Z,20.17
2023-05-25T09:12:49.893Z,20.04
2023-05-25T09:17:54.174Z,20.58
2023-05-25T09:22:57.059Z,20.45
2023-05-25T09:28:04.789Z,19.84
2023-05-25T09:33:17.582Z,20.45
2023-05-25T09:38:21.820Z,20.61
2023-05-25T09:43:39.707Z,20.79
2023-05-25T09:48:48.604Z,20.28
2023-05-25T09:53:51.978Z,19.86
2023-05-25T09:58:54.801Z,19.85
2023-05-25T10:04:04.357Z,20.33
2023-05-25T10:09:13.923Z,20.06
2023-05-25T10:14:27.141Z,20.51
2023-05-25T10:19:41.400Z,19.99
2023-05-25T10:24:51.291Z,20.31
2023-05-25T10:29:57.085Z,21.09
2023-05-25T10:35:03.010Z,21.78
2023-05-25T10:40:09.485Z,21.39
2023-05-25T10:45:13.438Z,21.00
2023-05-25T10:50:22.881Z,20.00
2023-05-25T10:55:27.784Z,21.33
2023-05-25T11:00:32.262Z,21.29
2023-05-25T11:05:38.818Z,21.28
2023-05-25T11:10:54.469Z,20.05
2023-05-25T11:16:17.681Z,20.15
2023-05-25T11:21:43.496Z,19.61
2023-05-25T11:26:58.071Z,19.72
2023-05-25T11:32:01.250Z,20.75
2023-05-25T11:37:06.151Z,20.15
2023-05-25T11:42:11.325Z,20.79
2023-05-25T11:47:18.612Z,20.15
2023-05-25T11:52:23.129Z,20.64
2023-05-25T11:57:26.705Z,21.14
2023-05-25T12:02:38.896Z,20.22
2023-05-25T12:07:46.878Z,19.96
2023-05-25T12:12:50.873Z,19.84
2023-05-25T12:17:55.480Z,20.22
2023-05-25T12:22:59.796Z,20.53
2023-05-25T12:28:12.024Z,20.83
2023-05-25T12:33:16.084Z,20.69
2023-05-25T12:38:21.799Z,19.94
2023-05-25T12:43:24.751Z,20.79
2023-05-25T12:48:28.170Z,20.50
2023-05-25T12:53:33.737Z,20.72
2023-05-25T12:58:36.518Z,20.91
2023-05-25T13:03:39.716Z,21.43
2023-05-25T13:08:44.260Z,20.97
2023-05-25T13:13:47.091Z,20.69
2023-05-25T13:18:49.864Z,20.30
2023-05-25T13:23:54.026Z,20.63
2023-05-25T13:28:56.811Z,20.86
2023-05-25T13:33:59.801Z,21.05
2023-05-25T13:39:05.245Z,21.21
2023-05-25T13:44:08.151Z,21.12
2023-05-25T13:49:11.924Z,20.88
2023-05-25T13:54:16.114Z,21.22
2023-05-25T13:59:18.978Z,20.82
2023-05-25T14:04:21.833Z,20.67
2023-05-25T14:09:26.221Z,20.98
2023-05-25T14:14:32.232Z,21.11
2023-05-25T14:19:36.040Z,20.72
2023-05-25T14:24:40.433Z,20.57
2023-05-25T14:29:43.316Z,20.70
2023-05-25T14:34:46.403Z,20.73
2023-05-25T14:39:50.588Z,21.19
2023-05-25T14:44:53.451Z,21.65
2023-05-25T14:49:56.460Z,21.51
2023-05-25T14:55:00.654Z,21.01
2023-05-25T15:00:04.152Z,20.88
2023-05-25T15:05:08.064Z,20.44
2023-05-25T15:10:12.869Z,21.01
2023-05-25T15:15:15.720Z,20.79
2023-05-25T15:20:18.673Z,20.18
2023-05-25T15:30:34.372Z,20.17
2023-05-25T15:35:37.231Z,20.21
2023-05-25T15:40:41.408Z,20.51
2023-05-25T15:45:44.397Z,20.59
2023-05-25T15:50:47.370Z,20.44
2023-05-25T15:55:51.547Z,20.27
2023-05-25T16:00:54.376Z,20.42
2023-05-25T16:05:57.828Z,20.48
2023-05-25T16:11:02.091Z,20.42
2023-05-25T16:16:06.427Z,20.12
2023-05-25T16:21:09.294Z,20.17
2023-05-25T16:26:13.688Z,20.13
2023-05-25T16:31:17.454Z,20.13
2023-05-25T16:36:20.472Z,19.93
2023-05-25T16:41:24.618Z,20.06
2023-05-25T16:46:27.464Z,19.63
2023-05-25T16:51:31.048Z,19.34
2023-05-25T16:56:35.587Z,19.35
2023-05-25T17:01:38.527Z,20.05
2023-05-25T17:06:41.335Z,19.86
2023-05-25T17:11:45.434Z,19.26
2023-05-25T17:16:48.258Z,19.67
2023-05-25T17:21:51.208Z,19.66
2023-05-25T17:26:55.355Z,19.57
2023-05-25T17:31:58.200Z,19.48
2023-05-25T17:37:01.104Z,19.58
2023-05-25T17:42:06.438Z,18.88
2023-05-25T17:47:11.098Z,19.04
2023-05-25T17:52:14.399Z,19.40
2023-05-25T17:57:19.268Z,19.20
2023-05-25T18:02:22.301Z,19.12
2023-05-25T18:07:25.385Z,19.42
2023-05-25T18:12:29.658Z,19.16
2023-05-25T18:17:32.602Z,18.92
2023-05-25T18:22:36.500Z,19.00
2023-05-25T18:27:40.849Z,18.73
2023-05-25T18:32:43.800Z,18.81
2023-05-25T18:37:46.746Z,18.47
2023-05-25T18:42:51.303Z,18.23
2023-05-25T18:47:54.300Z,18.16
2023-05-25T18:52:59.533Z,18.00
2023-05-25T18:58:04.138Z,17.86
2023-05-25T19:03:07.150Z,17.81
2023-05-25T19:08:10.471Z,17.63
2023-05-25T19:13:14.739Z,17.34
2023-05-25T19:18:17.721Z,17.11
2023-05-25T19:23:21.177Z,16.88
2023-05-25T19:28:25.664Z,16.46
2023-05-25T19:33:30.888Z,16.54
2023-05-25T19:38:41.177Z,16.35
2023-05-25T19:43:47.834Z,16.10
2023-05-25T19:48:54.085Z,16.15
2023-05-25T19:54:42.654Z,16.05
2023-05-25T19:59:47.404Z,15.67
2023-05-25T20:04:50.286Z,15.72
2023-05-25T20:09:53.116Z,15.60
2023-05-25T20:14:57.292Z,15.47
2023-05-25T20:20:00.830Z,15.54
2023-05-25T20:25:03.771Z,15.23
2023-05-25T20:30:13.856Z,15.00
2023-05-25T20:35:18.553Z,15.06
2023-05-25T20:40:21.835Z,14.61
2023-05-25T20:45:26.180Z,14.81
2023-05-25T20:50:29.262Z,14.92
2023-05-25T20:55:32.399Z,14.56
2023-05-25T21:00:36.572Z,14.71
2023-05-25T21:05:39.525Z,14.56
2023-05-25T21:10:42.330Z,14.33
2023-05-25T21:15:46.768Z,13.97
2023-05-25T21:20:50.136Z,14.02
2023-05-25T21:25:53.004Z,13.94
2023-05-25T21:30:57.296Z,14.03
2023-05-25T21:36:00.149Z,13.84
2023-05-25T21:41:03.014Z,13.53
2023-05-25T21:46:07.143Z,13.56
2023-05-25T21:51:09.987Z,13.55
2023-05-25T21:56:12.898Z,13.34
2023-05-25T22:01:17.196Z,13.31
2023-05-25T22:06:20.112Z,13.57
2023-05-25T22:11:24.409Z,13.39
2023-05-25T22:16:28.562Z,13.45
2023-05-25T22:21:31.395Z,13.30
2023-05-25T22:26:34.265Z,13.30
2023-05-25T22:31:38.565Z,13.18
2023-05-25T22:36:41.399Z,13.10
2023-05-25T22:41:44.284Z,13.06
2023-05-25T22:46:49.008Z,12.96
2023-05-25T22:51:51.956Z,12.92
2023-05-25T22:56:54.744Z,12.95
2023-05-25T23:01:59.060Z,12.78
2023-05-25T23:07:01.849Z,12.71
2023-05-25T23:12:04.955Z,12.72
2023-05-25T23:17:09.110Z,12.74
2023-05-25T23:22:11.998Z,12.33
2023-05-25T23:27:14.813Z,12.41
2023-05-25T23:32:18.962Z,12.49
2023-05-25T23:37:21.759Z,12.27
2023-05-25T23:42:24.595Z,12.19
2023-05-25T23:47:29.253Z,12.07
2023-05-25T23:52:32.080Z,12.14
2023-05-25T23:57:35.856Z,12.19
